Time;durP1;ratioP1;P1;durP2;ratioP2;P2;SDS_P1;SDS_P2;PMS_P1;PMS_P2;Temp;Humidity;BMP_temperature;BMP_pressure;BME280_temperature;BME280_humidity;BME280_pressure;Samples;Min_cycle;Max_cycle;Signal;HPM_P1;HPM_P2
2022/01/18 00:01:14;;;;;;;16.50;13.17;;;6.50;99.90;;;;;;5018074;28;20455;-84
2022/01/18 00:03:41;;;;;;;16.20;12.50;;;6.50;99.90;;;;;;5010746;28;20443;-85
2022/01/18 00:06:08;;;;;;;18.63;13.17;;;6.50;99.90;;;;;;5005598;28;20442;-85
2022/01/18 00:08:36;;;;;;;14.13;11.57;;;6.50;99.90;;;;;;5002911;28;20470;-85
2022/01/18 00:11:02;;;;;;;16.73;11.80;;;6.50;99.90;;;;;;5004263;28;21008;-85
2022/01/18 00:13:42;;;;;;;15.07;12.60;;;6.50;99.90;;;;;;5011914;28;20471;-85
2022/01/18 00:16:23;;;;;;;14.13;11.10;;;6.50;99.90;;;;;;4997768;28;20443;-85
2022/01/18 00:18:52;;;;;;;20.13;13.87;;;6.50;99.90;;;;;;5013708;28;20474;-87
2022/01/18 00:21:26;;;;;;;17.93;13.60;;;6.50;99.90;;;;;;4999311;28;20467;-86
2022/01/18 00:23:57;;;;;;;14.60;12.70;;;6.40;99.90;;;;;;5009996;28;20454;-85
2022/01/18 00:26:26;;;;;;;17.67;12.90;;;6.50;99.90;;;;;;4999786;28;20460;-86
2022/01/18 00:28:58;;;;;;;13.67;11.73;;;6.50;99.90;;;;;;4995784;28;20602;-86
2022/01/18 00:34:09;;;;;;;16.90;13.00;;;6.50;99.90;;;;;;4995298;28;20855;-85
2022/01/18 00:36:51;;;;;;;20.10;14.33;;;6.50;99.90;;;;;;4997186;28;20486;-86
2022/01/18 00:39:20;;;;;;;19.63;13.73;;;6.50;99.90;;;;;;4994927;28;20469;-86
2022/01/18 00:41:46;;;;;;;20.37;13.57;;;6.50;99.90;;;;;;4996365;28;20941;-86
2022/01/18 00:44:14;;;;;;;16.40;13.00;;;6.60;99.90;;;;;;4999941;28;20447;-85
2022/01/18 00:46:41;;;;;;;14.60;13.10;;;6.60;99.90;;;;;;4996281;28;20458;-86
2022/01/18 00:49:11;;;;;;;17.80;13.03;;;6.60;99.90;;;;;;5002219;28;20419;-86
2022/01/18 00:51:40;;;;;;;17.03;14.10;;;6.60;99.90;;;;;;5000191;28;20462;-86
2022/01/18 00:54:08;;;;;;;19.73;14.80;;;6.50;99.90;;;;;;4994803;28;20451;-86
2022/01/18 00:56:40;;;;;;;18.90;13.97;;;6.50;99.90;;;;;;4995357;28;20454;-85
2022/01/18 00:59:07;;;;;;;15.63;13.13;;;6.50;99.90;;;;;;4996345;28;20451;-85
2022/01/18 01:01:36;;;;;;;18.30;13.93;;;6.60;99.90;;;;;;4996283;28;21271;-86
2022/01/18 01:04:04;;;;;;;18.20;14.20;;;6.60;99.90;;;;;;4999733;28;20462;-85
2022/01/18 01:06:31;;;;;;;18.93;12.83;;;6.70;99.90;;;;;;4996592;28;20823;-85
2022/01/18 01:08:58;;;;;;;17.77;14.67;;;6.60;99.90;;;;;;4996426;28;20945;-85
2022/01/18 01:11:26;;;;;;;16.63;12.67;;;6.60;99.90;;;;;;5025734;23;20489;-90
2022/01/18 01:13:58;;;;;;;16.40;13.00;;;6.60;99.90;;;;;;5012542;28;20478;-90
2022/01/18 01:35:46;;;;;;;20.53;14.87;;;6.50;99.90;;;;;;5004423;28;20441;-90
2022/01/18 01:44:03;;;;;;;23.47;17.43;;;6.30;99.90;;;;;;5029609;28;20450;-89
2022/01/18 01:46:33;;;;;;;23.17;16.60;;;6.30;99.90;;;;;;5026009;28;20517;-90
2022/01/18 01:49:04;;;;;;;23.50;17.60;;;6.30;99.90;;;;;;5020613;28;20437;-89
2022/01/18 01:51:31;;;;;;;22.77;17.20;;;6.20;99.90;;;;;;5028779;28;20474;-89
2022/01/18 01:54:00;;;;;;;23.83;17.70;;;6.30;99.90;;;;;;5015986;28;20482;-90
2022/01/18 01:56:27;;;;;;;24.63;17.17;;;6.20;99.90;;;;;;5013451;28;20434;-89
2022/01/18 01:58:54;;;;;;;23.67;16.97;;;6.10;99.90;;;;;;5015816;28;20442;-90
2022/01/18 02:01:21;;;;;;;24.33;17.80;;;6.10;99.90;;;;;;5015323;28;20458;-90
2022/01/18 02:03:49;;;;;;;24.40;19.00;;;6.10;99.90;;;;;;5015473;28;20450;-90
2022/01/18 02:06:17;;;;;;;24.33;17.40;;;6.20;99.90;;;;;;5038494;28;20426;-92
2022/01/18 02:08:44;;;;;;;23.23;18.80;;;6.20;99.90;;;;;;5038737;28;20440;-91
2022/01/18 02:11:12;;;;;;;24.57;17.77;;;6.20;99.90;;;;;;5038145;28;20446;-92
2022/01/18 02:13:39;;;;;;;24.57;17.23;;;6.10;99.90;;;;;;5038470;28;20529;-91
2022/01/18 02:21:45;;;;;;;27.73;19.70;;;5.90;99.90;;;;;;5028934;28;20474;-89
2022/01/18 02:21:51;;;;;;;25.70;18.03;;;5.80;99.90;;;;;;5038251;28;20448;-91
2022/01/18 02:24:19;;;;;;;26.97;18.67;;;5.90;99.90;;;;;;5038260;28;20435;-93
2022/01/18 02:26:46;;;;;;;27.90;18.57;;;5.90;99.90;;;;;;5030883;28;20439;-90
2022/01/18 02:29:13;;;;;;;29.67;18.57;;;5.90;99.90;;;;;;5033474;28;20450;-89
2022/01/18 02:31:40;;;;;;;23.83;19.43;;;5.90;99.90;;;;;;5038777;28;20528;-90
2022/01/18 02:34:09;;;;;;;29.13;20.20;;;6.00;99.90;;;;;;5038394;28;20482;-91
2022/01/18 02:36:36;;;;;;;23.87;19.40;;;6.00;99.90;;;;;;5029371;28;20426;-90
2022/01/18 02:39:06;;;;;;;26.87;18.20;;;6.00;99.90;;;;;;5018704;28;20442;-90
2022/01/18 02:41:33;;;;;;;25.00;18.47;;;6.00;99.90;;;;;;5015988;28;20458;-90
2022/01/18 02:44:00;;;;;;;25.10;18.10;;;6.10;99.90;;;;;;5013106;28;20446;-90
2022/01/18 02:46:28;;;;;;;23.90;17.97;;;6.10;99.90;;;;;;5014069;28;20442;-90
2022/01/18 02:48:55;;;;;;;24.70;18.53;;;6.10;99.90;;;;;;5008813;28;20446;-90
2022/01/18 02:51:23;;;;;;;25.33;18.20;;;6.10;99.90;;;;;;5013497;28;20532;-89
2022/01/18 02:53:55;;;;;;;27.17;20.23;;;6.20;99.90;;;;;;5013541;28;21010;-89
2022/01/18 02:56:25;;;;;;;22.67;16.63;;;6.20;99.90;;;;;;5010401;28;20478;-89
2022/01/18 02:58:57;;;;;;;24.17;19.43;;;6.20;99.90;;;;;;5018738;28;20461;-90
2022/01/18 03:04:08;;;;;;;23.80;19.77;;;6.20;99.90;;;;;;5013530;28;20971;-90
2022/01/18 03:06:35;;;;;;;23.17;18.10;;;6.30;99.90;;;;;;5016572;28;20442;-90
2022/01/18 03:09:02;;;;;;;23.30;17.17;;;6.30;99.90;;;;;;5013316;28;20454;-90
2022/01/18 03:11:30;;;;;;;24.60;20.47;;;6.10;99.90;;;;;;5012064;28;20569;-90
2022/01/18 03:13:57;;;;;;;23.17;18.07;;;6.10;99.90;;;;;;5018803;28;20481;-90
2022/01/18 03:16:23;;;;;;;28.40;19.43;;;6.10;99.90;;;;;;5034500;28;20424;-91
2022/01/18 03:18:50;;;;;;;29.40;19.07;;;6.20;99.90;;;;;;5022826;28;21026;-90
2022/01/18 03:21:17;;;;;;;25.70;18.87;;;6.20;99.90;;;;;;5015196;28;20489;-90
2022/01/18 03:23:50;;;;;;;24.63;18.47;;;6.20;99.90;;;;;;5013905;28;20449;-91
2022/01/18 03:26:18;;;;;;;26.87;18.00;;;6.30;99.90;;;;;;5012158;28;20459;-90
2022/01/18 03:28:45;;;;;;;23.73;18.00;;;6.30;99.90;;;;;;5013873;28;20445;-89
2022/01/18 03:31:12;;;;;;;23.40;18.27;;;6.30;99.90;;;;;;5021278;28;20469;-89
2022/01/18 03:33:39;;;;;;;22.03;17.30;;;6.30;99.90;;;;;;5036458;28;20470;-92
2022/01/18 03:36:06;;;;;;;26.80;19.13;;;6.30;99.90;;;;;;5018247;28;20433;-90
2022/01/18 03:38:33;;;;;;;23.13;19.27;;;6.30;99.90;;;;;;5012843;28;20450;-89
2022/01/18 03:41:02;;;;;;;24.10;17.57;;;6.40;99.90;;;;;;5015813;28;20473;-90
2022/01/18 03:43:29;;;;;;;25.20;17.63;;;6.30;99.90;;;;;;5016833;28;20434;-90
2022/01/18 03:46:01;;;;;;;24.20;17.10;;;6.30;99.90;;;;;;5015234;28;20449;-89
2022/01/18 03:48:32;;;;;;;21.30;18.00;;;6.30;99.90;;;;;;5010897;28;20952;-90
2022/01/18 03:51:00;;;;;;;22.50;17.90;;;6.30;99.90;;;;;;5016288;28;21036;-90
2022/01/18 03:53:27;;;;;;;26.20;19.40;;;6.30;99.90;;;;;;5016704;28;20489;-89
2022/01/18 03:55:55;;;;;;;24.47;17.80;;;6.30;99.90;;;;;;5015487;28;20815;-86
2022/01/18 03:58:22;;;;;;;24.53;17.77;;;6.30;99.90;;;;;;5031370;28;20419;-88
2022/01/18 04:00:50;;;;;;;24.80;18.27;;;6.20;99.90;;;;;;5039904;28;20439;-88
2022/01/18 04:03:18;;;;;;;22.83;18.10;;;6.10;99.90;;;;;;5034555;28;20446;-88
2022/01/18 04:05:46;;;;;;;27.33;18.23;;;6.00;99.90;;;;;;5015909;28;20445;-87
2022/01/18 04:08:13;;;;;;;20.57;16.87;;;5.90;99.90;;;;;;5023830;28;20438;-89
2022/01/18 04:10:40;;;;;;;22.57;18.20;;;6.00;99.90;;;;;;5034992;28;20869;-88
2022/01/18 04:13:06;;;;;;;27.63;19.67;;;6.10;99.90;;;;;;5014939;28;20502;-89
2022/01/18 04:15:34;;;;;;;26.47;19.03;;;6.20;99.90;;;;;;5017374;28;20450;-88
2022/01/18 04:29:00;;;;;;;24.13;18.00;;;6.40;99.90;;;;;;5035719;28;20422;-89
2022/01/18 04:31:28;;;;;;;26.67;20.60;;;6.40;99.90;;;;;;5018183;28;20455;-88
2022/01/18 04:33:56;;;;;;;25.93;18.17;;;6.40;99.90;;;;;;5014771;28;20487;-89
2022/01/18 04:36:26;;;;;;;23.83;17.80;;;6.40;99.90;;;;;;5013614;28;20827;-88
2022/01/18 04:38:53;;;;;;;25.13;18.90;;;6.40;99.90;;;;;;5011641;28;20811;-89
2022/01/18 04:41:25;;;;;;;23.40;18.77;;;6.40;99.90;;;;;;5554644;23;20495;-87
2022/01/18 04:44:09;;;;;;;26.30;19.87;;;6.40;99.90;;;;;;4995977;28;20427;-86
2022/01/18 04:49:20;;;;;;;24.10;17.80;;;6.40;99.90;;;;;;5001356;28;20418;-87
2022/01/18 04:51:48;;;;;;;27.07;20.07;;;6.40;99.90;;;;;;5006019;28;20486;-87
2022/01/18 04:54:16;;;;;;;28.00;19.40;;;6.40;99.90;;;;;;5006945;28;20864;-88
2022/01/18 04:59:27;;;;;;;27.23;18.97;;;6.40;99.90;;;;;;5009639;28;20430;-87
2022/01/18 05:01:55;;;;;;;29.87;20.50;;;6.40;99.90;;;;;;5014018;28;20467;-86
2022/01/18 05:04:22;;;;;;;28.03;19.50;;;6.40;99.90;;;;;;5016867;28;20453;-87
2022/01/18 05:06:52;;;;;;;25.00;19.50;;;6.30;99.90;;;;;;5009767;28;20447;-87
2022/01/18 05:09:19;;;;;;;25.57;19.80;;;6.40;99.90;;;;;;4997604;28;20442;-87
2022/01/18 05:11:56;;;;;;;27.47;20.40;;;6.30;99.90;;;;;;5009362;28;20845;-87
2022/01/18 05:14:30;;;;;;;27.97;19.60;;;6.30;99.90;;;;;;4998245;28;20573;-88
2022/01/18 05:17:05;;;;;;;26.07;20.90;;;6.30;99.90;;;;;;4994498;28;20481;-86
2022/01/18 05:19:42;;;;;;;29.77;21.73;;;6.30;99.90;;;;;;4999948;28;20443;-88
2022/01/18 05:24:55;;;;;;;26.33;20.13;;;6.30;99.90;;;;;;4996154;28;20442;-87
2022/01/18 05:27:22;;;;;;;28.23;19.90;;;6.30;99.90;;;;;;5012317;28;20479;-88
2022/01/18 05:29:49;;;;;;;27.80;20.37;;;6.30;99.90;;;;;;5013049;28;20470;-88
2022/01/18 05:32:16;;;;;;;30.07;21.10;;;6.30;99.90;;;;;;4995936;28;20447;-88
2022/01/18 05:34:44;;;;;;;28.13;21.37;;;6.30;99.90;;;;;;4994891;28;20475;-88
2022/01/18 05:37:13;;;;;;;32.00;22.10;;;6.30;99.90;;;;;;4996852;28;20473;-88
2022/01/18 05:39:40;;;;;;;30.53;19.67;;;6.30;99.90;;;;;;4992704;28;20820;-88
2022/01/18 05:42:07;;;;;;;30.80;21.83;;;6.30;99.90;;;;;;4993715;28;20498;-88
2022/01/18 05:44:34;;;;;;;33.47;20.20;;;6.20;99.90;;;;;;4997193;28;20443;-89
2022/01/18 05:47:00;;;;;;;30.53;21.47;;;6.20;99.90;;;;;;5001771;28;20450;-89
2022/01/18 05:49:27;;;;;;;37.97;22.67;;;6.20;99.90;;;;;;4995962;28;20521;-88
2022/01/18 05:51:54;;;;;;;32.07;22.93;;;6.20;99.90;;;;;;4994512;28;20482;-88
2022/01/18 05:54:22;;;;;;;30.70;20.03;;;6.20;99.90;;;;;;4998397;28;20485;-89
2022/01/18 05:56:48;;;;;;;31.77;24.23;;;6.20;99.90;;;;;;4996287;28;20828;-89
2022/01/18 05:59:21;;;;;;;30.07;21.93;;;6.20;99.90;;;;;;4995864;28;20459;-87
2022/01/18 06:01:50;;;;;;;31.57;20.40;;;6.20;99.90;;;;;;4999807;28;20474;-88
2022/01/18 06:06:50;;;;;;;32.87;21.93;;;6.20;99.90;;;;;;4997187;28;20525;-85
2022/01/18 06:07:05;;;;;;;28.73;20.07;;;6.20;99.90;;;;;;4992487;28;20439;-85
2022/01/18 06:09:33;;;;;;;30.03;20.80;;;6.20;99.90;;;;;;4998168;28;20454;-85
2022/01/18 06:12:00;;;;;;;29.20;20.60;;;6.20;99.90;;;;;;5010041;28;20259;-84
2022/01/18 06:14:27;;;;;;;31.30;21.70;;;6.20;99.90;;;;;;5006401;28;20497;-85
2022/01/18 06:16:54;;;;;;;28.57;20.77;;;6.10;99.90;;;;;;4993605;28;20440;-86
2022/01/18 06:19:21;;;;;;;31.63;21.73;;;6.10;99.90;;;;;;4996144;28;20475;-86
2022/01/18 06:21:48;;;;;;;27.77;20.77;;;6.00;99.90;;;;;;4993685;28;20567;-86
2022/01/18 06:24:14;;;;;;;34.93;21.43;;;6.00;99.90;;;;;;4993952;28;20423;-85
2022/01/18 06:26:42;;;;;;;32.00;21.50;;;6.00;99.90;;;;;;5021524;28;20438;-85
2022/01/18 06:29:09;;;;;;;32.87;23.10;;;6.00;99.90;;;;;;4998012;28;20431;-86
2022/01/18 06:31:36;;;;;;;40.23;21.87;;;6.10;99.90;;;;;;4997017;28;20976;-86
2022/01/18 06:34:06;;;;;;;31.93;22.23;;;6.10;99.90;;;;;;4994045;28;20482;-86
2022/01/18 06:36:33;;;;;;;39.43;24.33;;;6.10;99.90;;;;;;4992290;28;20865;-86
2022/01/18 06:38:59;;;;;;;34.30;23.23;;;6.10;99.90;;;;;;5001626;28;20457;-85
2022/01/18 06:41:26;;;;;;;31.70;22.67;;;6.00;99.90;;;;;;5002316;28;20478;-85
2022/01/18 06:43:54;;;;;;;31.00;22.10;;;6.00;99.90;;;;;;5005791;28;20454;-85
2022/01/18 06:46:21;;;;;;;38.83;22.70;;;6.00;99.90;;;;;;5003617;28;20473;-86
2022/01/18 06:48:48;;;;;;;40.10;26.97;;;6.10;99.90;;;;;;4994020;28;20469;-85
2022/01/18 06:51:16;;;;;;;36.10;23.67;;;6.00;99.90;;;;;;5000912;28;20471;-86
2022/01/18 06:53:47;;;;;;;31.30;23.33;;;6.00;99.90;;;;;;5000571;28;20485;-86
2022/01/18 06:56:15;;;;;;;30.87;20.57;;;6.00;99.90;;;;;;5009743;28;20459;-85
2022/01/18 06:58:45;;;;;;;31.53;22.27;;;6.00;99.90;;;;;;4997737;28;20442;-85
2022/01/18 07:01:14;;;;;;;35.90;22.70;;;5.90;99.90;;;;;;5009852;28;20549;-84
2022/01/18 07:03:42;;;;;;;28.70;21.83;;;5.90;99.90;;;;;;5008389;28;20450;-86
2022/01/18 07:06:09;;;;;;;35.27;23.23;;;5.90;99.90;;;;;;5012716;28;20461;-86
2022/01/18 07:08:36;;;;;;;32.73;23.87;;;5.90;99.90;;;;;;5023941;28;20454;-86
2022/01/18 07:11:04;;;;;;;30.60;21.07;;;6.00;99.90;;;;;;5084851;22;20589;-86
2022/01/18 07:13:31;;;;;;;36.73;24.20;;;6.00;99.90;;;;;;5016473;28;20464;-87
2022/01/18 07:15:58;;;;;;;37.10;23.37;;;6.00;99.90;;;;;;5030072;28;20438;-87
2022/01/18 07:18:26;;;;;;;37.23;26.63;;;5.90;99.90;;;;;;5029748;28;20448;-86
2022/01/18 07:20:53;;;;;;;35.80;23.73;;;5.90;99.90;;;;;;5024393;28;20493;-87
2022/01/18 07:23:20;;;;;;;32.40;22.80;;;6.00;99.90;;;;;;5030123;28;20450;-86
2022/01/18 07:25:48;;;;;;;30.47;22.00;;;6.00;99.90;;;;;;5034483;28;20507;-86
2022/01/18 07:28:17;;;;;;;34.83;22.80;;;5.90;99.90;;;;;;5033261;28;20477;-86
2022/01/18 07:30:45;;;;;;;29.77;21.47;;;5.90;99.90;;;;;;5026709;28;20979;-86
2022/01/18 07:33:13;;;;;;;37.50;22.90;;;6.00;99.90;;;;;;5025292;28;20467;-88
2022/01/18 07:35:42;;;;;;;36.20;23.90;;;6.00;99.90;;;;;;5024623;28;20520;-87
2022/01/18 07:38:12;;;;;;;36.03;24.33;;;6.00;99.90;;;;;;5025347;28;20984;-86
2022/01/18 07:40:40;;;;;;;33.53;22.40;;;6.00;99.90;;;;;;5032649;28;20493;-86
2022/01/18 07:43:07;;;;;;;30.73;22.80;;;6.00;99.90;;;;;;5019079;28;20979;-86
2022/01/18 07:45:34;;;;;;;35.83;23.73;;;6.10;99.90;;;;;;5018589;28;20449;-86
2022/01/18 07:48:01;;;;;;;34.37;22.07;;;6.10;99.90;;;;;;5019670;28;20514;-86
2022/01/18 07:50:28;;;;;;;38.17;24.57;;;6.10;99.90;;;;;;5030862;28;20533;-87
2022/01/18 07:52:56;;;;;;;33.33;24.33;;;6.20;99.90;;;;;;5037762;28;20504;-86
2022/01/18 07:55:23;;;;;;;29.17;22.10;;;6.30;99.90;;;;;;5026732;28;20489;-86
2022/01/18 07:57:49;;;;;;;32.03;24.30;;;6.30;99.90;;;;;;5035993;28;20450;-86
2022/01/18 08:00:17;;;;;;;31.17;24.43;;;6.40;99.90;;;;;;5028807;28;20469;-86
2022/01/18 08:02:45;;;;;;;29.47;21.23;;;6.50;99.90;;;;;;5034104;28;20454;-86
2022/01/18 08:05:13;;;;;;;34.63;23.00;;;6.50;99.90;;;;;;5029237;28;20450;-86
2022/01/18 08:07:41;;;;;;;32.73;22.97;;;6.50;99.90;;;;;;5024362;28;20836;-86
2022/01/18 08:10:11;;;;;;;33.90;22.93;;;6.60;99.90;;;;;;5024694;28;20462;-87
2022/01/18 08:12:38;;;;;;;35.10;21.63;;;6.60;99.90;;;;;;5023591;28;20473;-86
2022/01/18 08:15:15;;;;;;;31.03;22.50;;;6.70;99.90;;;;;;5026695;28;20485;-87
2022/01/18 08:17:43;;;;;;;32.33;23.23;;;6.80;99.90;;;;;;5024646;28;20895;-87
2022/01/18 08:20:13;;;;;;;31.53;22.13;;;7.00;99.90;;;;;;5023848;28;20489;-86
2022/01/18 08:22:41;;;;;;;33.70;21.77;;;7.10;99.90;;;;;;5023032;28;20524;-86
2022/01/18 08:25:10;;;;;;;33.50;22.83;;;7.20;99.90;;;;;;5011064;28;20863;-86
2022/01/18 08:27:37;;;;;;;28.33;20.67;;;7.40;99.90;;;;;;5022404;28;20450;-86
2022/01/18 08:30:07;;;;;;;31.80;22.57;;;7.60;99.90;;;;;;5022441;28;20450;-86
2022/01/18 08:32:33;;;;;;;25.80;20.90;;;7.60;99.90;;;;;;5022856;28;20446;-86
2022/01/18 08:35:00;;;;;;;27.57;21.60;;;7.70;99.90;;;;;;5025796;28;20489;-86
2022/01/18 08:37:27;;;;;;;30.10;23.70;;;7.70;99.90;;;;;;5028220;28;20450;-85
2022/01/18 08:39:53;;;;;;;29.03;18.37;;;7.80;99.90;;;;;;5024019;28;20458;-88
2022/01/18 08:42:21;;;;;;;24.10;20.00;;;7.80;99.90;;;;;;5028834;28;20461;-87
2022/01/18 08:44:48;;;;;;;29.97;20.87;;;8.00;99.90;;;;;;5027380;28;20450;-86
2022/01/18 08:47:17;;;;;;;26.07;20.67;;;8.10;99.90;;;;;;5034614;28;20481;-86
2022/01/18 08:49:45;;;;;;;30.37;22.27;;;8.10;99.90;;;;;;5038549;28;20438;-87
2022/01/18 08:52:13;;;;;;;31.47;20.40;;;8.20;99.90;;;;;;5025033;28;20471;-86
2022/01/18 08:54:40;;;;;;;28.93;20.50;;;8.40;99.90;;;;;;5028000;28;20509;-85
2022/01/18 08:57:06;;;;;;;28.03;21.83;;;8.30;99.90;;;;;;5026798;28;20446;-87
2022/01/18 08:59:35;;;;;;;30.90;21.07;;;8.10;99.90;;;;;;5023794;28;20454;-85
2022/01/18 09:02:02;;;;;;;28.20;22.40;;;7.80;99.90;;;;;;5037560;28;20522;-86
2022/01/18 09:04:29;;;;;;;31.03;23.97;;;7.80;99.90;;;;;;5023963;28;20434;-87
2022/01/18 09:06:57;;;;;;;31.23;23.33;;;8.00;99.90;;;;;;5021883;28;20458;-86
2022/01/18 09:09:25;;;;;;;33.47;22.60;;;8.30;99.90;;;;;;5022207;28;20483;-86
2022/01/18 09:11:53;;;;;;;31.27;21.83;;;8.90;99.90;;;;;;5022204;28;20490;-86
2022/01/18 09:14:20;;;;;;;33.00;24.03;;;9.30;99.90;;;;;;5003771;28;20443;-87
2022/01/18 09:16:48;;;;;;;22.00;19.50;;;9.50;99.90;;;;;;5021822;28;20446;-87
2022/01/18 09:19:15;;;;;;;27.20;19.30;;;9.80;99.90;;;;;;5021859;28;20454;-86
2022/01/18 09:21:44;;;;;;;24.53;18.53;;;10.00;99.90;;;;;;5021379;28;20470;-86
2022/01/18 09:24:11;;;;;;;25.53;18.53;;;10.10;99.90;;;;;;5019750;28;20481;-86
2022/01/18 09:26:38;;;;;;;26.80;18.53;;;10.20;99.90;;;;;;5019770;28;20442;-86
2022/01/18 09:29:06;;;;;;;21.50;15.83;;;10.20;99.90;;;;;;5025356;28;21002;-86
2022/01/18 09:31:35;;;;;;;29.50;19.50;;;10.10;99.90;;;;;;5023647;28;20467;-86
2022/01/18 09:34:03;;;;;;;25.43;18.43;;;9.90;99.90;;;;;;5022001;28;20451;-87
2022/01/18 09:36:29;;;;;;;26.30;18.33;;;9.70;99.90;;;;;;5028075;28;20492;-86
2022/01/18 09:38:56;;;;;;;27.37;19.30;;;9.80;99.90;;;;;;5026515;28;20457;-87
2022/01/18 09:41:27;;;;;;;29.10;19.73;;;9.80;99.90;;;;;;5022546;28;20470;-87
2022/01/18 09:43:54;;;;;;;31.50;21.33;;;9.60;99.90;;;;;;5022584;28;20549;-86
2022/01/18 09:46:24;;;;;;;26.93;20.27;;;9.70;99.90;;;;;;5021602;28;20442;-86
2022/01/18 09:48:53;;;;;;;27.03;19.10;;;10.20;99.90;;;;;;5020708;28;20490;-86
2022/01/18 09:51:21;;;;;;;27.47;20.30;;;10.70;99.90;;;;;;5020736;28;20476;-87
2022/01/18 09:53:48;;;;;;;26.43;21.57;;;11.30;99.90;;;;;;5020903;28;21049;-86
2022/01/18 09:56:15;;;;;;;27.43;20.53;;;11.80;99.90;;;;;;5020947;28;20486;-87
2022/01/18 09:58:42;;;;;;;24.87;19.13;;;12.20;99.50;;;;;;5020842;28;20454;-86
2022/01/18 10:01:08;;;;;;;22.77;18.97;;;12.70;98.20;;;;;;5020962;28;20524;-86
2022/01/18 10:03:38;;;;;;;26.60;19.60;;;12.50;97.40;;;;;;5020572;28;20456;-86
2022/01/18 10:06:06;;;;;;;25.60;18.90;;;12.10;97.50;;;;;;5019793;28;20450;-87
2022/01/18 10:08:35;;;;;;;30.47;21.87;;;12.20;97.90;;;;;;5018832;28;20447;-86
2022/01/18 10:11:08;;;;;;;27.40;20.00;;;12.10;97.80;;;;;;5028851;28;20448;-87
2022/01/18 10:13:38;;;;;;;25.70;19.10;;;12.00;97.40;;;;;;5021297;28;20964;-86
2022/01/18 10:16:09;;;;;;;27.30;18.93;;;11.50;97.50;;;;;;5024656;28;20532;-86
2022/01/18 10:18:42;;;;;;;24.07;18.87;;;11.90;98.20;;;;;;5021751;28;20469;-86
2022/01/18 10:21:13;;;;;;;22.03;18.20;;;11.90;97.90;;;;;;5023875;28;20477;-87
2022/01/18 10:23:48;;;;;;;22.87;17.97;;;11.70;97.00;;;;;;5036162;28;21009;-87
2022/01/18 10:26:17;;;;;;;24.57;17.37;;;11.50;97.30;;;;;;5029299;28;20449;-86
2022/01/18 10:28:44;;;;;;;23.70;18.23;;;11.50;97.80;;;;;;5032506;28;20448;-87
2022/01/18 10:31:34;;;;;;;24.20;15.83;;;11.90;97.80;;;;;;5031244;28;20470;-87
2022/01/18 10:34:29;;;;;;;22.87;15.47;;;12.00;96.90;;;;;;5023365;28;20471;-87
2022/01/18 10:37:04;;;;;;;20.43;14.17;;;13.00;96.00;;;;;;5017794;28;20502;-86
2022/01/18 10:39:35;;;;;;;20.30;15.00;;;13.80;93.90;;;;;;5028395;28;20440;-88
2022/01/18 10:42:16;;;;;;;23.70;12.70;;;14.10;92.70;;;;;;5037608;28;20455;-87
2022/01/18 10:44:45;;;;;;;17.80;15.70;;;13.70;91.70;;;;;;5030960;28;20517;-87
2022/01/18 10:47:12;;;;;;;23.97;14.13;;;13.20;93.20;;;;;;5031896;28;20448;-87
2022/01/18 10:49:44;;;;;;;19.30;15.70;;;14.60;92.90;;;;;;5028456;28;20449;-86
2022/01/18 10:52:13;;;;;;;25.10;16.80;;;16.30;89.70;;;;;;5023552;28;20553;-86
2022/01/18 10:54:44;;;;;;;17.40;15.20;;;15.90;87.70;;;;;;5024533;28;20456;-86
2022/01/18 10:57:14;;;;;;;21.40;15.50;;;14.90;88.20;;;;;;5026895;28;20459;-87
2022/01/18 10:59:41;;;;;;;17.37;14.00;;;13.70;91.10;;;;;;5028420;28;20948;-87
2022/01/18 11:02:13;;;;;;;14.60;12.70;;;15.20;91.10;;;;;;5029778;28;20523;-87
2022/01/18 11:04:42;;;;;;;16.40;11.70;;;14.80;87.20;;;;;;5028354;28;20825;-85
2022/01/18 11:07:11;;;;;;;17.60;14.23;;;15.10;88.70;;;;;;5033345;28;20450;-85
2022/01/18 11:09:38;;;;;;;17.13;13.40;;;15.80;87.20;;;;;;5025253;28;20825;-85
2022/01/18 11:12:07;;;;;;;15.57;12.70;;;16.00;85.20;;;;;;5024881;28;20513;-85
2022/01/18 11:14:37;;;;;;;14.87;12.73;;;16.20;83.20;;;;;;5022704;28;20450;-86
2022/01/18 11:17:06;;;;;;;13.07;11.67;;;16.20;83.20;;;;;;5017981;28;20560;-87
2022/01/18 11:19:36;;;;;;;15.80;11.20;;;16.40;80.40;;;;;;5020596;28;20580;-87
2022/01/18 11:22:07;;;;;;;11.27;9.00;;;16.70;79.30;;;;;;5017600;28;20474;-87
2022/01/18 11:24:37;;;;;;;14.93;13.37;;;17.00;78.40;;;;;;5017026;28;20446;-90
2022/01/18 11:27:08;;;;;;;12.30;10.17;;;17.00;78.20;;;;;;5018041;28;20451;-87
2022/01/18 11:29:36;;;;;;;12.57;9.90;;;18.10;76.70;;;;;;5017572;28;20814;-89
2022/01/18 11:32:03;;;;;;;14.50;12.03;;;19.80;72.50;;;;;;5016990;28;20468;-88
2022/01/18 11:34:39;;;;;;;11.10;10.00;;;22.60;65.20;;;;;;5018520;28;20459;-87
2022/01/18 11:37:15;;;;;;;11.80;10.47;;;22.70;58.00;;;;;;5017107;28;20979;-88
2022/01/18 11:39:42;;;;;;;18.27;10.30;;;23.10;57.00;;;;;;5015672;28;20453;-87
2022/01/18 11:42:13;;;;;;;14.07;10.50;;;24.80;55.30;;;;;;5017119;28;20475;-88
2022/01/18 11:44:40;;;;;;;11.73;9.87;;;21.10;55.10;;;;;;5029436;28;20436;-87
2022/01/18 11:47:09;;;;;;;14.80;9.90;;;18.10;60.00;;;;;;5028547;28;20558;-87
2022/01/18 11:49:37;;;;;;;8.30;7.37;;;16.80;65.50;;;;;;5019586;28;20776;-87
2022/01/18 11:52:06;;;;;;;18.33;12.43;;;15.70;69.40;;;;;;5018861;28;20482;-87
2022/01/18 11:54:43;;;;;;;12.70;10.20;;;14.60;72.80;;;;;;5018356;28;20453;-87
2022/01/18 11:57:37;;;;;;;10.50;9.40;;;13.30;78.00;;;;;;5019768;28;20486;-87
2022/01/18 12:00:27;;;;;;;10.93;9.63;;;12.20;82.30;;;;;;5017133;28;20484;-88
2022/01/18 12:02:55;;;;;;;14.40;9.70;;;11.30;87.00;;;;;;5019314;28;20477;-87
2022/01/18 12:05:25;;;;;;;12.27;9.07;;;10.90;90.00;;;;;;5017697;28;20447;-87
2022/01/18 12:07:57;;;;;;;14.17;9.27;;;10.40;91.00;;;;;;5017110;28;20529;-88
2022/01/18 12:10:45;;;;;;;8.73;7.77;;;9.90;92.70;;;;;;5017755;28;20466;-87
2022/01/18 12:13:23;;;;;;;10.53;8.03;;;9.40;93.40;;;;;;5018286;28;20465;-88
2022/01/18 12:15:52;;;;;;;10.07;7.73;;;9.20;94.30;;;;;;5015798;28;20581;-87
2022/01/18 12:18:22;;;;;;;9.87;6.93;;;9.20;94.70;;;;;;5016707;28;20456;-87
2022/01/18 12:20:50;;;;;;;11.27;7.27;;;9.30;95.10;;;;;;4998468;28;20466;-87
2022/01/18 12:23:20;;;;;;;10.90;8.20;;;9.40;95.50;;;;;;5021090;28;20454;-86
2022/01/18 12:25:57;;;;;;;9.43;8.40;;;9.50;95.60;;;;;;5026215;28;20538;-86
2022/01/18 12:32:06;;;;;;;12.60;7.93;;;9.70;95.70;;;;;;4999327;28;20477;-88
2022/01/18 12:34:34;;;;;;;9.40;7.33;;;9.70;96.10;;;;;;5026676;28;20442;-87
2022/01/18 12:37:33;;;;;;;9.70;8.27;;;9.60;96.00;;;;;;5018706;28;20489;-87
2022/01/18 12:40:05;;;;;;;10.30;6.83;;;9.50;96.20;;;;;;5018795;28;20454;-88
2022/01/18 12:45:22;;;;;;;10.80;6.37;;;9.50;96.20;;;;;;5023869;28;20465;-88
2022/01/18 12:47:51;;;;;;;7.20;6.47;;;9.50;95.90;;;;;;5015998;28;20875;-87
2022/01/18 12:50:22;;;;;;;8.10;6.10;;;9.50;95.80;;;;;;5015583;28;20513;-88
2022/01/18 12:52:51;;;;;;;7.93;6.07;;;9.40;95.60;;;;;;5020431;28;20497;-87
2022/01/18 12:55:30;;;;;;;7.67;6.10;;;9.30;95.40;;;;;;5031337;28;20480;-87
2022/01/18 12:58:01;;;;;;;8.43;6.37;;;9.30;95.70;;;;;;5023987;28;20473;-87
2022/01/18 13:00:30;;;;;;;7.87;6.43;;;9.30;95.90;;;;;;5031569;28;20464;-87
2022/01/18 13:03:00;;;;;;;8.50;6.30;;;9.30;95.60;;;;;;5023397;28;20446;-88
2022/01/18 13:05:38;;;;;;;8.77;6.20;;;9.20;96.00;;;;;;5017933;28;20452;-88
2022/01/18 13:08:06;;;;;;;6.93;5.53;;;9.20;96.10;;;;;;5028205;28;20541;-89
2022/01/18 13:10:39;;;;;;;6.70;4.83;;;9.00;95.90;;;;;;5039261;28;20456;-89
2022/01/18 13:13:09;;;;;;;5.90;4.30;;;8.90;96.00;;;;;;5032473;23;20497;-89
2022/01/18 13:15:51;;;;;;;9.23;4.20;;;8.80;95.90;;;;;;5016303;28;20450;-90
2022/01/18 13:26:36;;;;;;;6.97;4.07;;;9.30;96.50;;;;;;5015718;28;20445;-90
2022/01/18 13:29:14;;;;;;;6.80;5.80;;;10.50;94.20;;;;;;5016104;28;20952;-90
2022/01/18 13:31:45;;;;;;;4.57;3.50;;;11.70;92.10;;;;;;5016786;28;20505;-90
2022/01/18 13:34:16;;;;;;;4.73;3.53;;;12.20;90.80;;;;;;5015939;28;20481;-90
2022/01/18 13:36:49;;;;;;;3.10;2.37;;;12.90;90.10;;;;;;5016379;28;20482;-89
2022/01/18 13:39:26;;;;;;;5.13;3.00;;;13.10;85.60;;;;;;5016953;28;20848;-91
2022/01/18 13:41:53;;;;;;;5.20;3.10;;;13.50;85.20;;;;;;5016170;28;20484;-90
2022/01/18 13:44:20;;;;;;;8.53;3.57;;;13.30;83.00;;;;;;5016434;28;20462;-90
2022/01/18 13:46:50;;;;;;;7.30;3.60;;;14.20;83.20;;;;;;5017113;28;20457;-90
2022/01/18 13:49:17;;;;;;;6.67;3.53;;;15.80;79.40;;;;;;5020378;28;20481;-89
2022/01/18 13:52:00;;;;;;;4.37;3.30;;;16.30;76.10;;;;;;5020305;28;20856;-89
2022/01/18 13:54:28;;;;;;;6.23;3.00;;;16.70;73.80;;;;;;5015572;28;20438;-89
2022/01/18 13:56:57;;;;;;;7.40;3.10;;;16.40;71.80;;;;;;5019122;28;20492;-89